createdAt,value
2019-05-17T00:00:39.332Z,51.13
2019-05-17T00:03:09.322Z,50.85
2019-05-17T00:08:40.294Z,51.17
2019-05-17T00:14:33.682Z,51.37
2019-05-17T00:17:06.631Z,51.11
2019-05-17T00:19:37.159Z,51.36
2019-05-17T00:22:07.536Z,51.57
2019-05-17T00:24:39.983Z,51.53
2019-05-17T00:27:41.466Z,51.36
2019-05-17T00:30:01.727Z,51.45
2019-05-17T00:32:31.689Z,51.24
2019-05-17T00:35:01.822Z,51.26
2019-05-17T00:37:50.534Z,51.24
2019-05-17T00:43:22.972Z,50.87
2019-05-17T00:46:03.615Z,50.92
2019-05-17T00:48:37.222Z,50.93
2019-05-17T00:51:09.921Z,50.81
2019-05-17T00:53:40.637Z,50.58
2019-05-17T00:56:29.712Z,50.35
2019-05-17T00:59:02.181Z,50.66
2019-05-17T01:01:51.150Z,50.78
2019-05-17T01:04:40.241Z,50.64
2019-05-17T01:07:28.890Z,50.39
2019-05-17T01:09:58.974Z,50.64
2019-05-17T01:12:51.725Z,50.81
2019-05-17T01:15:40.783Z,50.53
2019-05-17T01:18:12.742Z,50.49
2019-05-17T01:20:51.827Z,50.73
2019-05-17T01:23:43.515Z,50.99
2019-05-17T01:26:13.526Z,50.86
2019-05-17T01:28:46.750Z,50.91
2019-05-17T01:31:17.928Z,51.04
2019-05-17T01:34:07.483Z,51.11
2019-05-17T01:36:39.490Z,51.20
2019-05-17T01:39:17.706Z,50.98
2019-05-17T01:41:42.088Z,50.50
2019-05-17T01:44:12.153Z,50.59
2019-05-17T01:46:42.247Z,50.29
2019-05-17T01:49:13.117Z,50.36
2019-05-17T01:51:43.247Z,50.71
2019-05-17T01:54:13.264Z,50.63
2019-05-17T01:56:43.306Z,50.78
2019-05-17T02:02:26.900Z,50.52
2019-05-17T02:04:56.940Z,50.68
2019-05-17T02:07:28.105Z,50.94
2019-05-17T02:10:16.731Z,51.16
2019-05-17T02:12:33.595Z,51.18
2019-05-17T02:15:03.667Z,51.46
2019-05-17T02:17:33.505Z,52.09
2019-05-17T02:20:03.534Z,52.28
2019-05-17T02:22:33.433Z,52.17
2019-05-17T02:25:03.731Z,52.77
2019-05-17T02:33:43.227Z,52.47
2019-05-17T02:36:14.208Z,52.60
2019-05-17T02:38:55.393Z,52.74
2019-05-17T02:41:27.941Z,53.05
2019-05-17T02:43:57.765Z,52.83
2019-05-17T02:46:27.537Z,52.84
2019-05-17T02:48:57.277Z,52.86
2019-05-17T02:52:06.572Z,53.04
2019-05-17T02:54:38.943Z,53.22
2019-05-17T02:57:08.843Z,53.24
2019-05-17T03:02:29.019Z,53.57
2019-05-17T03:05:17.857Z,53.43
2019-05-17T03:10:29.433Z,53.59
2019-05-17T03:12:59.257Z,54.07
2019-05-17T03:15:32.191Z,53.99
2019-05-17T03:18:03.647Z,54.17
2019-05-17T03:20:36.019Z,54.27
2019-05-17T03:23:06.193Z,54.26
2019-05-17T03:25:35.991Z,54.55
2019-05-17T03:28:06.740Z,54.42
2019-05-17T03:30:37.707Z,54.13
2019-05-17T03:33:09.105Z,54.03
2019-05-17T03:35:45.198Z,54.14
2019-05-17T03:38:14.128Z,53.87
2019-05-17T03:43:14.491Z,53.87
2019-05-17T03:46:03.335Z,53.73
2019-05-17T03:48:33.582Z,53.51
2019-05-17T03:51:07.361Z,53.49
2019-05-17T03:54:32.387Z,53.65
2019-05-17T03:59:52.603Z,53.43
2019-05-17T04:02:24.016Z,53.36
2019-05-17T04:05:14.768Z,52.94
2019-05-17T04:07:44.922Z,52.90
2019-05-17T04:12:59.433Z,52.49
2019-05-17T04:15:32.642Z,52.51
2019-05-17T04:18:23.204Z,52.45
2019-05-17T04:21:12.553Z,52.46
2019-05-17T04:23:42.916Z,52.61
2019-05-17T04:26:27.552Z,52.31
2019-05-17T04:28:56.794Z,52.25
2019-05-17T04:31:30.478Z,52.01
2019-05-17T04:33:58.308Z,52.01
2019-05-17T04:36:47.263Z,52.19
2019-05-17T04:39:36.134Z,52.14
2019-05-17T04:48:43.528Z,52.13
2019-05-17T04:52:06.202Z,51.86
2019-05-17T04:54:49.052Z,51.29
2019-05-17T05:00:34.142Z,51.33
2019-05-17T05:03:04.081Z,50.74
2019-05-17T05:05:46.913Z,51.05
2019-05-17T05:08:28.882Z,50.91
2019-05-17T05:10:58.818Z,50.42
2019-05-17T05:13:28.636Z,50.58
2019-05-17T05:15:58.468Z,50.68
2019-05-17T05:18:52.085Z,50.59
2019-05-17T05:24:31.484Z,50.41
2019-05-17T05:27:02.569Z,50.06
2019-05-17T05:29:34.897Z,50.24
2019-05-17T05:32:04.789Z,50.53
2019-05-17T05:37:35.402Z,50.76
2019-05-17T05:40:12.341Z,51.51
2019-05-17T05:42:43.407Z,52.11
2019-05-17T05:45:22.926Z,52.10
2019-05-17T05:47:55.045Z,52.04
2019-05-17T05:50:43.936Z,52.02
2019-05-17T05:53:35.008Z,52.03
2019-05-17T05:56:07.147Z,52.35
2019-05-17T05:59:37.808Z,52.09
2019-05-17T06:02:04.326Z,52.02
2019-05-17T06:04:34.288Z,52.36
2019-05-17T06:07:04.202Z,52.53
2019-05-17T06:09:34.159Z,52.22
2019-05-17T06:14:55.127Z,52.19
2019-05-17T06:17:24.980Z,51.96
2019-05-17T06:20:13.682Z,52.24
2019-05-17T06:22:46.950Z,52.07
2019-05-17T06:31:33.306Z,51.75
2019-05-17T06:34:15.793Z,51.76
2019-05-17T06:36:57.516Z,52.06
2019-05-17T06:45:41.671Z,51.07
2019-05-17T06:49:02.954Z,50.73
2019-05-17T06:51:05.702Z,50.56
2019-05-17T06:53:35.811Z,50.79
2019-05-17T06:56:05.633Z,50.50
2019-05-17T06:58:37.227Z,50.49
2019-05-17T07:01:26.120Z,50.83
2019-05-17T07:04:15.098Z,50.88
2019-05-17T07:09:27.731Z,51.06
2019-05-17T07:12:13.618Z,50.27
2019-05-17T07:14:52.389Z,49.80
2019-05-17T07:17:44.795Z,49.55
2019-05-17T07:20:14.643Z,49.58
2019-05-17T07:23:03.526Z,49.92
2019-05-17T07:25:33.384Z,49.59
2019-05-17T07:28:10.118Z,49.79
2019-05-17T07:30:59.606Z,49.53
2019-05-17T07:33:39.872Z,49.60
2019-05-17T07:36:30.664Z,49.46
2019-05-17T07:39:12.110Z,49.66
2019-05-17T07:41:50.859Z,49.70
2019-05-17T07:44:44.059Z,49.88
2019-05-17T07:47:25.827Z,49.50
2019-05-17T07:50:20.073Z,49.27
2019-05-17T07:56:19.984Z,49.54
2019-05-17T07:59:12.850Z,49.86
2019-05-17T08:01:42.692Z,50.04
2019-05-17T08:04:33.365Z,49.44
2019-05-17T08:07:03.214Z,49.29
2019-05-17T08:09:52.195Z,49.44
2019-05-17T08:12:41.247Z,48.83
2019-05-17T08:18:20.394Z,48.90
2019-05-17T08:21:10.495Z,48.79
2019-05-17T08:23:40.348Z,48.67
2019-05-17T08:26:10.715Z,48.21
2019-05-17T08:31:43.927Z,47.84
2019-05-17T08:34:13.907Z,47.01
2019-05-17T08:37:23.184Z,46.43
2019-05-17T08:40:15.026Z,46.41
2019-05-17T08:42:43.820Z,45.86
2019-05-17T08:45:31.890Z,46.27
2019-05-17T08:51:34.210Z,45.96
2019-05-17T08:57:26.106Z,45.99
2019-05-17T08:59:56.153Z,45.03
2019-05-17T09:05:47.235Z,43.36
2019-05-17T09:08:17.288Z,43.03
2019-05-17T09:11:00.212Z,42.87
2019-05-17T09:13:57.278Z,42.49
2019-05-17T09:16:52.799Z,42.55
2019-05-17T09:21:54.469Z,42.13
2019-05-17T09:25:03.789Z,41.76
2019-05-17T09:27:34.475Z,41.73
2019-05-17T09:30:25.700Z,41.86
2019-05-17T09:36:30.352Z,41.50
2019-05-17T09:42:33.645Z,40.30
2019-05-17T09:45:05.456Z,39.93
2019-05-17T09:53:36.376Z,37.85
2019-05-17T09:56:27.166Z,37.59
2019-05-17T10:05:20.176Z,36.98
2019-05-17T10:08:11.051Z,36.32
2019-05-17T10:11:08.610Z,35.33
2019-05-17T10:13:37.301Z,33.83
2019-05-17T10:16:10.187Z,33.38
2019-05-17T10:18:42.265Z,33.93
2019-05-17T10:21:46.075Z,34.23
2019-05-17T10:27:11.000Z,34.40
2019-05-17T10:29:31.088Z,33.08
2019-05-17T10:32:01.833Z,32.16
2019-05-17T10:34:32.500Z,32.03
2019-05-17T10:37:22.055Z,31.80
2019-05-17T10:40:37.115Z,32.19
2019-05-17T10:43:46.422Z,32.29
2019-05-17T10:47:30.051Z,32.52
2019-05-17T10:49:58.621Z,33.27
2019-05-17T10:53:13.391Z,34.41
2019-05-17T10:59:31.606Z,33.61
2019-05-17T11:02:22.464Z,33.97
2019-05-17T11:09:31.671Z,35.28
2019-05-17T11:15:10.958Z,34.57
2019-05-17T11:26:53.240Z,34.44
2019-05-17T11:29:35.881Z,33.95
2019-05-17T11:33:12.664Z,33.80
2019-05-17T11:54:03.432Z,28.63
2019-05-17T11:57:12.096Z,29.16
2019-05-17T12:03:10.394Z,28.46
2019-05-17T12:05:52.792Z,29.36
2019-05-17T12:11:57.404Z,28.79
2019-05-17T12:15:05.042Z,28.72
2019-05-17T12:18:11.396Z,28.32
2019-05-17T12:26:59.867Z,28.01
2019-05-17T12:30:05.364Z,27.13
2019-05-17T12:32:57.081Z,27.79
2019-05-17T12:36:07.986Z,27.08
2019-05-17T12:39:20.134Z,27.47
2019-05-17T12:48:52.477Z,27.90
2019-05-17T12:55:08.756Z,27.10
2019-05-17T13:01:36.313Z,27.14
2019-05-17T13:11:23.164Z,26.81
2019-05-17T13:17:59.241Z,28.00
2019-05-17T13:24:20.897Z,28.32
2019-05-17T13:34:27.322Z,29.13
2019-05-17T13:36:52.269Z,29.20
2019-05-17T13:39:45.497Z,28.50
2019-05-17T13:46:10.350Z,28.16
2019-05-17T13:48:58.365Z,28.03
2019-05-17T13:52:13.376Z,27.95
2019-05-17T13:55:16.246Z,28.20
2019-05-17T14:04:29.546Z,28.46
2019-05-17T14:07:24.475Z,28.13
2019-05-17T14:10:32.117Z,27.42
2019-05-17T14:13:41.448Z,27.69
2019-05-17T14:16:53.254Z,27.58
2019-05-17T14:23:27.524Z,27.08
2019-05-17T14:32:37.871Z,26.88
2019-05-17T14:48:27.428Z,26.65
2019-05-17T14:51:07.049Z,26.39
2019-05-17T14:54:39.121Z,26.39
2019-05-17T14:57:08.178Z,26.10
2019-05-17T15:00:15.223Z,25.31
2019-05-17T15:03:25.954Z,25.14
2019-05-17T15:22:20.456Z,24.82
2019-05-17T15:25:13.800Z,24.82
2019-05-17T15:28:02.553Z,24.76
2019-05-17T15:31:45.262Z,24.35
2019-05-17T15:34:37.104Z,23.77
2019-05-17T15:37:47.650Z,23.81
2019-05-17T15:40:29.861Z,22.87
2019-05-17T15:43:29.853Z,22.50
2019-05-17T15:47:13.175Z,22.60
2019-05-17T15:49:53.794Z,22.01
2019-05-17T15:56:21.690Z,23.04
2019-05-17T15:59:33.189Z,23.62
2019-05-17T16:06:01.207Z,23.68
2019-05-17T16:11:37.113Z,23.74
2019-05-17T16:26:44.988Z,23.77
2019-05-17T16:29:55.439Z,23.69
2019-05-17T16:36:00.308Z,23.32
2019-05-17T16:42:11.202Z,23.55
2019-05-17T16:45:09.969Z,23.63
2019-05-17T16:48:23.197Z,23.82
2019-05-17T16:51:25.248Z,23.92
2019-05-17T17:06:57.833Z,23.97
2019-05-17T17:13:32.379Z,23.52
2019-05-17T17:16:11.257Z,23.91
2019-05-17T17:22:24.654Z,24.02
2019-05-17T17:25:36.018Z,23.83
2019-05-17T17:32:21.794Z,24.59
2019-05-17T17:36:13.057Z,24.86
2019-05-17T17:48:19.129Z,26.43
2019-05-17T17:54:29.703Z,27.82
2019-05-17T18:00:58.036Z,29.53
2019-05-17T18:04:03.640Z,29.81
2019-05-17T18:10:13.704Z,30.66
2019-05-17T18:13:17.800Z,30.84
2019-05-17T18:16:23.569Z,31.31
2019-05-17T18:19:32.029Z,31.49
2019-05-17T18:22:43.503Z,31.61
2019-05-17T18:29:00.782Z,32.37
2019-05-17T18:32:40.116Z,32.60
2019-05-17T18:34:55.743Z,32.56
2019-05-17T18:40:53.519Z,32.91
2019-05-17T18:50:25.283Z,33.94
2019-05-17T18:53:30.431Z,34.06
2019-05-17T18:56:11.585Z,34.38
2019-05-17T19:02:03.590Z,34.87
2019-05-17T19:05:08.098Z,35.08
2019-05-17T19:08:05.761Z,35.46
2019-05-17T19:11:05.132Z,35.74
2019-05-17T19:29:35.093Z,36.74
2019-05-17T19:32:48.285Z,36.72
2019-05-17T19:36:04.169Z,36.95
2019-05-17T19:42:06.138Z,36.69
2019-05-17T19:45:01.009Z,36.30
2019-05-17T19:51:39.776Z,36.38
2019-05-17T19:54:34.418Z,36.50
2019-05-17T20:03:57.188Z,36.53
2019-05-17T20:07:04.662Z,36.52
2019-05-17T20:10:16.683Z,36.39
2019-05-17T20:12:53.746Z,36.39
2019-05-17T20:16:08.520Z,36.50
2019-05-17T20:23:37.141Z,36.68
2019-05-17T20:25:40.946Z,36.71
2019-05-17T20:34:52.162Z,36.59
2019-05-17T20:38:01.123Z,36.51
2019-05-17T20:41:04.103Z,36.46
2019-05-17T20:43:59.377Z,36.42
2019-05-17T20:56:57.111Z,36.69
2019-05-17T21:03:01.343Z,37.50
2019-05-17T21:08:46.170Z,37.90
2019-05-17T21:11:52.031Z,38.30
2019-05-17T21:18:02.020Z,39.22
2019-05-17T21:20:59.359Z,39.29
2019-05-17T21:26:47.646Z,39.75
2019-05-17T21:30:41.807Z,39.84
2019-05-17T21:38:19.733Z,40.04
2019-05-17T21:41:08.543Z,40.23
2019-05-17T21:52:03.256Z,40.23
2019-05-17T21:54:51.930Z,40.35
2019-05-17T21:57:43.040Z,40.53
2019-05-17T22:03:22.214Z,40.70
2019-05-17T22:06:29.910Z,40.93
2019-05-17T22:14:55.383Z,40.45
2019-05-17T22:17:44.373Z,40.55
2019-05-17T22:23:14.923Z,40.74
2019-05-17T22:26:03.895Z,40.90
2019-05-17T22:28:33.714Z,41.15
2019-05-17T22:34:00.056Z,41.36
2019-05-17T22:36:17.979Z,41.64
2019-05-17T22:44:17.783Z,41.95
2019-05-17T22:49:57.807Z,42.17
2019-05-17T22:53:07.912Z,42.07
2019-05-17T22:55:53.554Z,42.26
2019-05-17T22:58:43.940Z,42.34
2019-05-17T23:01:15.656Z,42.48
2019-05-17T23:06:44.832Z,42.84
2019-05-17T23:10:03.347Z,43.04
2019-05-17T23:12:33.198Z,43.10
2019-05-17T23:19:19.335Z,42.91
2019-05-17T23:22:14.619Z,42.15
2019-05-17T23:31:17.343Z,42.75
2019-05-17T23:33:47.275Z,42.95
2019-05-17T23:36:37.176Z,43.20
2019-05-17T23:39:12.487Z,43.45
2019-05-17T23:41:43.143Z,43.70
2019-05-17T23:44:32.975Z,44.06
2019-05-17T23:47:16.860Z,44.10
2019-05-17T23:49:57.920Z,44.32
2019-05-17T23:52:28.689Z,44.30
2019-05-17T23:55:00.734Z,44.21
2019-05-17T23:57:31.569Z,44.19
